Time;durP1;ratioP1;P1;durP2;ratioP2;P2;SDS_P1;SDS_P2;PMS_P1;PMS_P2;Temp;Humidity;BMP_temperature;BMP_pressure;BME280_temperature;BME280_humidity;BME280_pressure;Samples;Min_cycle;Max_cycle;Signal;HPM_P1;HPM_P2
2023/05/10 00:01:43;;;;;;;1.75;1.50;;;;;;;17.87;81.41;99242.66;4935748;28;20503;-87
2023/05/10 00:04:10;;;;;;;3.00;1.40;;;;;;;17.83;81.59;99243.25;4932429;28;20460;-86
2023/05/10 00:06:37;;;;;;;3.17;1.55;;;;;;;17.81;81.48;99240.78;4936442;28;20071;-87
2023/05/10 00:09:04;;;;;;;4.95;1.83;;;;;;;17.79;81.22;99248.16;4929898;28;20446;-87
2023/05/10 00:11:31;;;;;;;2.35;1.55;;;;;;;17.76;81.40;99244.03;4931077;28;20046;-87
2023/05/10 00:13:57;;;;;;;2.30;1.30;;;;;;;17.76;81.51;99240.50;4947139;28;20078;-87
2023/05/10 00:16:24;;;;;;;2.80;1.70;;;;;;;17.78;81.00;99241.13;4952725;28;20528;-87
2023/05/10 00:18:51;;;;;;;2.17;1.45;;;;;;;17.77;81.15;99251.03;4948201;28;20079;-87
2023/05/10 00:21:18;;;;;;;6.15;1.60;;;;;;;17.74;81.23;99250.63;4914714;28;20133;-87
2023/05/10 00:23:45;;;;;;;2.20;1.40;;;;;;;17.75;80.92;99254.94;4935391;28;20134;-86
2023/05/10 00:26:11;;;;;;;1.83;1.40;;;;;;;17.72;80.70;99245.44;4931433;28;20039;-86
2023/05/10 00:28:42;;;;;;;1.95;1.60;;;;;;;17.73;80.70;99251.63;4949884;28;20471;-87
2023/05/10 00:31:09;;;;;;;7.63;1.73;;;;;;;17.71;80.83;99254.53;4947354;28;20043;-87
2023/05/10 00:33:36;;;;;;;3.50;1.40;;;;;;;17.70;80.69;99255.53;4901068;28;20046;-87
2023/05/10 00:36:03;;;;;;;3.90;1.70;;;;;;;17.69;80.73;99259.25;4921289;28;20058;-87
2023/05/10 00:38:30;;;;;;;3.38;1.48;;;;;;;17.69;80.55;99256.56;4935800;28;20055;-87
2023/05/10 00:40:56;;;;;;;2.58;1.45;;;;;;;17.68;80.65;99257.59;4946788;28;20479;-87
2023/05/10 00:43:28;;;;;;;1.63;1.27;;;;;;;17.66;80.40;99253.47;4932668;28;20447;-87
2023/05/10 00:45:55;;;;;;;3.05;1.50;;;;;;;17.64;80.72;99258.19;4918728;28;20495;-87
2023/05/10 00:48:22;;;;;;;2.85;1.48;;;;;;;17.64;80.70;99263.56;4946445;28;20043;-87
2023/05/10 00:50:49;;;;;;;1.65;1.40;;;;;;;17.64;80.53;99258.19;4930882;28;20053;-88
2023/05/10 00:53:16;;;;;;;2.38;1.45;;;;;;;17.62;80.25;99258.38;4933039;28;20058;-87
2023/05/10 00:55:43;;;;;;;1.67;1.42;;;;;;;17.57;80.45;99253.59;4960710;28;20047;-87
2023/05/10 00:58:10;;;;;;;3.40;1.30;;;;;;;17.58;80.40;99263.31;4945742;28;20070;-87
2023/05/10 01:00:38;;;;;;;1.60;1.30;;;;;;;17.59;80.12;99261.47;4932068;28;20051;-87
2023/05/10 01:03:05;;;;;;;4.72;1.50;;;;;;;17.59;79.90;99256.09;4933946;28;20039;-87
2023/05/10 01:05:32;;;;;;;3.33;1.42;;;;;;;17.58;79.99;99252.56;4965318;28;20102;-87
2023/05/10 01:07:59;;;;;;;3.35;1.30;;;;;;;17.55;80.11;99258.34;4923151;28;20058;-87
2023/05/10 01:10:25;;;;;;;2.95;1.48;;;;;;;17.48;80.38;99260.16;4921129;28;20061;-88
2023/05/10 01:12:52;;;;;;;6.63;1.58;;;;;;;17.49;80.21;99267.16;4952713;28;20101;-87
2023/05/10 01:15:20;;;;;;;3.67;1.30;;;;;;;17.50;79.89;99262.63;4932198;28;20047;-87
2023/05/10 01:17:48;;;;;;;2.17;1.42;;;;;;;17.48;79.92;99253.94;4933554;28;20486;-87
2023/05/10 01:20:15;;;;;;;3.55;1.30;;;;;;;17.43;79.97;99264.41;4953372;28;20451;-87
2023/05/10 01:23:14;;;;;;;2.83;1.42;;;;;;;17.32;79.75;99268.44;4935151;28;20062;-87
2023/05/10 01:26:20;;;;;;;1.83;1.45;;;;;;;17.28;80.08;99264.50;4939652;28;20593;-87
2023/05/10 01:29:19;;;;;;;2.40;1.30;;;;;;;17.31;80.10;99261.44;4938566;28;22937;-87
2023/05/10 01:32:07;;;;;;;2.47;1.40;;;;;;;17.33;79.85;99267.44;4943236;28;20055;-88
2023/05/10 01:34:36;;;;;;;2.95;1.33;;;;;;;17.37;80.18;99271.38;4951705;28;20043;-87
2023/05/10 01:37:09;;;;;;;1.55;1.45;;;;;;;17.33;79.71;99275.50;4953233;28;20039;-87
2023/05/10 01:39:54;;;;;;;;;;;;;;;17.14;80.75;99269.75;4932619;28;20066;-87
2023/05/10 01:42:27;;;;;;;2.10;1.40;;;;;;;17.28;80.28;99275.25;4930685;28;20450;-87
2023/05/10 01:45:05;;;;;;;2.05;1.30;;;;;;;17.28;80.10;99277.94;4945002;28;20672;-87
2023/05/10 01:47:51;;;;;;;3.67;1.70;;;;;;;17.28;80.01;99283.31;4931757;28;20051;-87
2023/05/10 01:50:25;;;;;;;2.97;1.50;;;;;;;17.36;79.34;99280.47;4937939;28;20075;-87
2023/05/10 01:52:56;;;;;;;7.40;1.52;;;;;;;17.39;79.60;99279.25;4947841;28;20130;-87
2023/05/10 01:55:27;;;;;;;2.63;1.70;;;;;;;17.36;79.80;99275.94;4953837;28;20051;-87
2023/05/10 01:58:02;;;;;;;2.90;1.60;;;;;;;17.38;79.26;99289.16;4946193;28;20047;-86
2023/05/10 02:00:31;;;;;;;1.60;1.45;;;;;;;17.41;79.33;99296.81;4919300;28;20052;-87
2023/05/10 02:03:06;;;;;;;4.32;1.65;;;;;;;17.34;79.05;99288.72;4921774;28;20054;-87
2023/05/10 02:05:34;;;;;;;5.20;1.40;;;;;;;17.38;78.86;99291.00;4931451;28;20054;-88
2023/05/10 02:08:01;;;;;;;2.17;1.67;;;;;;;17.39;78.92;99292.69;4928153;28;20079;-87
2023/05/10 02:10:28;;;;;;;3.10;1.80;;;;;;;17.35;78.94;99293.06;4920142;28;20057;-87
2023/05/10 02:12:58;;;;;;;2.72;1.63;;;;;;;17.32;78.68;99297.97;4930950;28;20047;-87
2023/05/10 02:15:26;;;;;;;5.50;1.90;;;;;;;17.35;78.76;99289.53;4940955;28;20047;-88
2023/05/10 02:17:55;;;;;;;2.17;1.83;;;;;;;17.34;78.65;99293.25;4937668;28;20507;-87
2023/05/10 02:20:23;;;;;;;3.33;1.80;;;;;;;17.32;78.46;99292.59;4915019;28;20537;-87
2023/05/10 02:22:51;;;;;;;3.35;2.05;;;;;;;17.32;78.49;99298.78;4933824;28;20046;-87
2023/05/10 02:25:19;;;;;;;4.97;2.53;;;;;;;17.31;78.24;99304.38;4952885;28;20043;-88
2023/05/10 02:27:47;;;;;;;7.47;2.22;;;;;;;17.31;78.01;99301.69;4949133;28;20701;-87
2023/05/10 02:30:14;;;;;;;4.57;2.00;;;;;;;17.28;78.53;99296.72;4933584;28;20043;-87
2023/05/10 02:32:42;;;;;;;3.53;2.55;;;;;;;17.27;78.85;99309.28;4905595;28;20130;-88
2023/05/10 02:35:09;;;;;;;7.63;2.30;;;;;;;17.27;78.67;99308.44;4945107;28;20063;-87
2023/05/10 02:37:39;;;;;;;6.47;2.58;;;;;;;17.24;77.84;99319.56;4894980;28;20484;-87
2023/05/10 02:40:07;;;;;;;6.72;2.47;;;;;;;17.24;78.27;99312.34;4923877;28;20038;-87
2023/05/10 02:42:36;;;;;;;3.53;2.10;;;;;;;17.24;78.18;99319.56;4917266;28;20046;-86
2023/05/10 02:45:08;;;;;;;6.85;2.60;;;;;;;17.24;77.83;99316.88;4953000;28;20051;-87
2023/05/10 02:47:35;;;;;;;7.43;2.42;;;;;;;17.23;78.26;99317.94;4950846;28;20388;-87
2023/05/10 02:50:02;;;;;;;5.50;3.05;;;;;;;17.20;78.27;99316.47;4930516;28;20446;-87
2023/05/10 02:52:39;;;;;;;4.18;2.22;;;;;;;17.15;78.30;99321.56;4947540;28;20130;-87
2023/05/10 02:55:07;;;;;;;6.93;2.47;;;;;;;17.19;78.26;99319.31;4934169;28;20051;-87
2023/05/10 02:57:35;;;;;;;7.90;2.30;;;;;;;17.21;78.21;99317.28;4952465;28;20047;-87
2023/05/10 03:00:03;;;;;;;2.80;2.47;;;;;;;17.19;78.03;99322.00;4953105;28;20058;-87
2023/05/10 03:02:30;;;;;;;2.88;2.30;;;;;;;17.16;78.25;99325.91;4951435;28;20047;-87
2023/05/10 03:04:58;;;;;;;4.20;2.40;;;;;;;17.17;78.06;99329.41;4921133;28;20051;-88
2023/05/10 03:07:25;;;;;;;3.78;2.90;;;;;;;17.16;78.37;99335.81;4921565;28;20050;-87
2023/05/10 03:09:52;;;;;;;9.77;2.55;;;;;;;17.12;78.33;99330.81;4948412;28;20682;-87
2023/05/10 03:12:19;;;;;;;5.00;2.65;;;;;;;17.11;78.76;99337.19;4941402;28;20067;-87
2023/05/10 03:14:56;;;;;;;4.88;3.05;;;;;;;17.08;78.46;99336.75;4949684;28;20047;-88
2023/05/10 03:17:41;;;;;;;4.63;3.65;;;;;;;17.12;78.78;99343.38;4926103;28;20134;-88
2023/05/10 03:20:14;;;;;;;4.40;3.80;;;;;;;17.09;78.15;99338.41;4946055;28;20475;-88
2023/05/10 03:22:46;;;;;;;5.68;3.95;;;;;;;17.10;78.16;99340.91;4968894;28;20095;-87
2023/05/10 03:25:15;;;;;;;4.80;3.03;;;;;;;17.08;78.03;99342.94;4916286;28;20047;-87
2023/05/10 03:27:43;;;;;;;4.35;3.40;;;;;;;17.08;78.85;99340.25;4932386;28;20047;-87
2023/05/10 03:30:11;;;;;;;9.90;4.15;;;;;;;17.05;79.12;99335.28;4950555;28;20082;-91
2023/05/10 03:32:38;;;;;;;4.97;4.35;;;;;;;17.04;79.42;99344.34;4899381;28;20116;-91
2023/05/10 03:35:10;;;;;;;5.13;4.10;;;;;;;17.07;78.98;99346.66;4916036;28;20070;-92
2023/05/10 03:37:37;;;;;;;4.85;4.30;;;;;;;17.05;78.75;99345.19;4931626;28;20047;-92
2023/05/10 03:40:06;;;;;;;4.78;4.25;;;;;;;17.01;78.90;99346.56;4947544;28;20155;-90
2023/05/10 03:42:35;;;;;;;7.60;3.97;;;;;;;17.02;78.89;99349.09;4953013;28;20075;-91
2023/05/10 03:45:03;;;;;;;4.90;4.38;;;;;;;17.02;78.84;99351.75;4927654;28;20070;-91
2023/05/10 03:47:29;;;;;;;7.28;4.25;;;;;;;16.99;79.46;99352.13;4950599;28;20066;-91
2023/05/10 03:49:57;;;;;;;7.70;4.60;;;;;;;17.00;79.48;99347.59;4935221;28;20077;-91
2023/05/10 03:52:25;;;;;;;5.68;4.30;;;;;;;16.96;79.73;99357.88;4903713;28;20058;-92
2023/05/10 03:54:52;;;;;;;8.00;4.70;;;;;;;16.96;79.91;99357.88;4949314;28;20514;-92
2023/05/10 03:57:19;;;;;;;8.15;5.18;;;;;;;16.97;79.79;99361.38;4936363;28;20047;-90
2023/05/10 03:59:45;;;;;;;5.03;4.53;;;;;;;16.93;80.18;99366.28;4932463;28;20043;-90
2023/05/10 04:02:12;;;;;;;5.22;4.63;;;;;;;16.93;79.69;99360.94;4915225;28;20595;-91
2023/05/10 04:04:39;;;;;;;5.35;4.30;;;;;;;16.92;80.14;99361.97;4933397;28;20114;-91
2023/05/10 04:07:06;;;;;;;5.70;4.47;;;;;;;16.90;80.21;99364.81;4929259;28;20055;-90
2023/05/10 04:09:33;;;;;;;10.23;4.78;;;;;;;16.90;80.32;99369.34;4918676;28;20058;-91
2023/05/10 04:12:02;;;;;;;9.20;5.05;;;;;;;16.85;80.96;99361.88;4919537;28;20054;-91
2023/05/10 04:14:28;;;;;;;4.70;4.18;;;;;;;16.87;80.25;99364.38;4928306;28;20097;-91
2023/05/10 04:16:55;;;;;;;6.22;5.43;;;;;;;16.88;80.10;99366.03;4930317;28;20499;-90
2023/05/10 04:19:22;;;;;;;8.23;4.88;;;;;;;16.90;80.23;99359.47;4916910;28;20514;-91
2023/05/10 04:21:49;;;;;;;9.30;5.82;;;;;;;16.88;80.06;99356.13;4945978;28;20129;-91
2023/05/10 04:24:16;;;;;;;8.68;6.00;;;;;;;16.91;80.23;99365.66;4932203;28;20057;-91
2023/05/10 04:26:43;;;;;;;10.48;4.57;;;;;;;16.89;79.98;99359.63;4952544;28;20051;-91
2023/05/10 04:29:10;;;;;;;7.90;5.32;;;;;;;16.93;79.80;99367.13;4930154;28;20055;-89
2023/05/10 04:31:36;;;;;;;9.75;5.78;;;;;;;16.93;79.72;99369.81;4918645;28;20134;-91
2023/05/10 04:34:03;;;;;;;8.13;5.70;;;;;;;16.95;79.91;99371.47;4928644;28;20043;-90
2023/05/10 04:36:32;;;;;;;8.48;5.43;;;;;;;16.96;79.60;99373.13;4929917;28;20456;-87
2023/05/10 04:38:59;;;;;;;7.43;5.20;;;;;;;16.98;79.45;99371.09;4933158;28;20047;-88
2023/05/10 04:41:25;;;;;;;8.13;5.05;;;;;;;16.92;79.71;99378.88;4963245;28;20113;-88
2023/05/10 04:43:52;;;;;;;6.70;5.00;;;;;;;16.97;79.69;99380.16;4946680;28;20051;-89
2023/05/10 04:46:19;;;;;;;10.20;4.75;;;;;;;16.94;79.94;99378.66;4963417;28;20058;-90
2023/05/10 04:48:45;;;;;;;14.68;5.30;;;;;;;16.96;79.74;99386.53;4946251;28;20047;-89
2023/05/10 04:51:12;;;;;;;6.03;4.30;;;;;;;16.93;79.54;99393.13;4949085;28;20047;-90
2023/05/10 04:53:39;;;;;;;6.85;4.95;;;;;;;16.93;79.80;99385.06;4958698;28;20458;-90
2023/05/10 04:56:08;;;;;;;11.00;4.82;;;;;;;16.96;79.50;99395.41;4935145;28;20510;-90
2023/05/10 04:58:35;;;;;;;6.93;4.82;;;;;;;16.97;79.13;99393.56;4952804;28;20493;-89
2023/05/10 05:01:09;;;;;;;8.13;5.43;;;;;;;16.91;78.94;99390.59;4967702;28;20051;-90
2023/05/10 05:03:36;;;;;;;5.40;4.47;;;;;;;16.96;78.97;99390.06;4951214;28;20419;-87
2023/05/10 05:06:03;;;;;;;8.85;5.30;;;;;;;16.93;79.49;99396.63;4935227;28;20094;-90
2023/05/10 05:08:30;;;;;;;7.82;4.78;;;;;;;16.95;78.86;99398.31;4952958;28;20110;-89
2023/05/10 05:10:57;;;;;;;6.75;4.75;;;;;;;16.96;79.11;99394.59;4948775;28;20507;-87
2023/05/10 05:13:23;;;;;;;8.27;5.03;;;;;;;16.95;79.05;99392.94;4950944;28;20832;-90
2023/05/10 05:15:50;;;;;;;7.43;5.22;;;;;;;16.96;78.90;99403.47;4952565;28;20110;-90
2023/05/10 05:18:17;;;;;;;16.35;5.97;;;;;;;16.94;79.45;99405.50;4949901;28;20050;-90
2023/05/10 05:20:44;;;;;;;7.32;5.00;;;;;;;16.96;79.06;99400.78;4934134;28;20082;-89
2023/05/10 05:23:11;;;;;;;7.68;5.43;;;;;;;16.97;79.35;99398.91;4950599;28;20051;-90
2023/05/10 05:25:37;;;;;;;8.52;5.78;;;;;;;16.98;79.06;99400.59;4952514;28;20458;-90
2023/05/10 05:28:04;;;;;;;7.95;5.78;;;;;;;16.97;79.22;99407.81;4951862;28;20403;-89
2023/05/10 05:30:31;;;;;;;8.25;5.53;;;;;;;16.99;78.92;99399.56;4918828;28;20051;-87
2023/05/10 05:32:58;;;;;;;8.63;5.68;;;;;;;16.96;79.03;99403.47;4928897;28;20543;-90
2023/05/10 05:35:24;;;;;;;8.30;6.70;;;;;;;17.01;78.99;99416.31;4971239;28;20110;-90
2023/05/10 05:37:51;;;;;;;9.07;6.25;;;;;;;17.01;78.98;99408.25;4952792;28;20039;-85
2023/05/10 05:40:18;;;;;;;9.40;6.78;;;;;;;16.99;79.00;99413.81;4948704;28;20169;-88
2023/05/10 05:42:44;;;;;;;9.43;6.55;;;;;;;17.02;78.84;99413.47;4950342;28;20150;-89
2023/05/10 05:45:12;;;;;;;11.40;5.95;;;;;;;17.03;78.81;99416.97;4954346;28;20203;-91
2023/05/10 05:47:40;;;;;;;12.10;6.53;;;;;;;17.05;78.48;99413.06;4937829;28;20487;-89
2023/05/10 05:50:07;;;;;;;12.10;6.30;;;;;;;17.06;78.76;99417.41;4956095;28;20133;-89
2023/05/10 05:52:34;;;;;;;13.00;5.78;;;;;;;17.07;78.83;99415.56;4932985;28;20058;-90
2023/05/10 05:55:00;;;;;;;19.52;6.47;;;;;;;17.11;78.54;99416.84;4931431;28;20046;-90
2023/05/10 05:57:27;;;;;;;7.35;5.43;;;;;;;17.13;78.51;99417.50;4953108;28;20118;-88
2023/05/10 05:59:54;;;;;;;7.28;5.20;;;;;;;17.16;78.24;99421.66;4952979;28;20054;-89
2023/05/10 06:02:21;;;;;;;8.82;5.50;;;;;;;17.17;78.42;99420.63;4947957;28;20062;-89
2023/05/10 06:04:48;;;;;;;11.18;6.22;;;;;;;17.23;78.49;99426.06;4967239;28;20043;-89
2023/05/10 06:07:14;;;;;;;9.00;5.43;;;;;;;17.26;78.61;99427.56;4915766;28;20046;-89
2023/05/10 06:09:41;;;;;;;8.98;5.70;;;;;;;17.27;78.27;99432.72;4949418;28;20667;-88
2023/05/10 06:12:08;;;;;;;11.63;5.80;;;;;;;17.28;78.26;99426.34;4965070;28;20434;-84
2023/05/10 06:14:35;;;;;;;11.30;6.05;;;;;;;17.30;78.08;99431.50;4933691;28;20051;-89
2023/05/10 06:17:03;;;;;;;10.25;5.78;;;;;;;17.28;78.27;99428.19;4962906;28;20055;-88
2023/05/10 06:19:30;;;;;;;12.98;5.55;;;;;;;17.28;78.07;99425.53;4951997;28;20055;-88
2023/05/10 06:21:57;;;;;;;12.23;5.68;;;;;;;17.29;78.13;99430.69;4951472;28;20058;-88
2023/05/10 06:24:24;;;;;;;11.63;5.68;;;;;;;17.31;78.01;99433.19;4964886;28;20105;-89
2023/05/10 06:26:50;;;;;;;9.50;5.40;;;;;;;17.33;77.97;99431.97;4930179;28;20047;-86
2023/05/10 06:29:17;;;;;;;9.60;6.07;;;;;;;17.33;78.05;99426.59;4935545;28;20106;-89
2023/05/10 06:31:44;;;;;;;7.80;5.78;;;;;;;17.37;78.08;99435.09;4931166;28;20067;-89
2023/05/10 06:34:11;;;;;;;11.98;6.32;;;;;;;17.41;78.04;99431.03;4934542;28;20546;-89
2023/05/10 06:36:38;;;;;;;8.43;5.50;;;;;;;17.40;77.95;99428.53;4948586;28;20568;-89
2023/05/10 06:39:05;;;;;;;12.98;6.00;;;;;;;17.40;77.65;99440.09;4950873;28;20502;-89
2023/05/10 06:41:32;;;;;;;8.45;6.32;;;;;;;17.42;77.66;99438.03;4914793;28;20050;-90
2023/05/10 06:43:58;;;;;;;9.45;6.47;;;;;;;17.42;77.78;99445.28;4951358;28;20050;-89
2023/05/10 06:46:25;;;;;;;9.73;5.95;;;;;;;17.43;77.77;99441.56;4933988;28;20081;-89
2023/05/10 06:48:52;;;;;;;10.55;6.78;;;;;;;17.39;78.15;99441.13;4923705;28;20081;-90
2023/05/10 06:51:20;;;;;;;10.43;6.63;;;;;;;17.41;78.09;99440.94;4943491;28;20035;-89
2023/05/10 06:53:47;;;;;;;11.57;6.78;;;;;;;17.42;78.09;99450.63;4916681;28;20043;-90
2023/05/10 06:56:14;;;;;;;9.00;6.65;;;;;;;17.42;78.40;99454.16;4933311;28;20603;-90
2023/05/10 06:58:41;;;;;;;13.02;6.50;;;;;;;17.43;78.21;99446.91;4929072;28;20049;-89
2023/05/10 07:01:08;;;;;;;8.57;5.60;;;;;;;17.39;77.92;99451.84;4951815;28;20058;-89
2023/05/10 07:03:35;;;;;;;9.10;5.25;;;;;;;17.35;78.12;99454.09;4904354;28;20067;-88
2023/05/10 07:06:06;;;;;;;4.75;4.25;;;;;;;17.37;77.61;99451.19;4926938;28;20058;-90
2023/05/10 07:08:41;;;;;;;7.15;4.57;;;;;;;17.31;77.84;99454.66;4952482;28;20050;-89
2023/05/10 07:11:08;;;;;;;8.27;4.90;;;;;;;17.35;77.55;99446.03;4958664;28;20129;-90
2023/05/10 07:13:36;;;;;;;10.43;5.03;;;;;;;17.34;77.49;99447.03;4931011;28;20057;-90
2023/05/10 07:16:02;;;;;;;7.25;4.50;;;;;;;17.35;77.29;99459.47;4918937;28;20553;-90
2023/05/10 07:18:29;;;;;;;10.15;5.15;;;;;;;17.31;76.92;99457.34;4967308;28;20062;-90
2023/05/10 07:20:56;;;;;;;7.80;4.85;;;;;;;17.31;77.13;99457.34;4948166;28;20047;-89
2023/05/10 07:23:23;;;;;;;5.68;4.70;;;;;;;17.33;77.14;99463.34;4964523;28;20039;-88
2023/05/10 07:25:54;;;;;;;8.48;5.20;;;;;;;17.37;77.07;99467.31;4934070;28;20067;-89
2023/05/10 07:28:21;;;;;;;8.45;5.45;;;;;;;17.42;77.07;99472.94;4933086;28;20052;-89
2023/05/10 07:30:48;;;;;;;7.90;5.32;;;;;;;17.47;77.44;99469.69;4938496;28;20066;-89
2023/05/10 07:33:15;;;;;;;11.90;6.10;;;;;;;17.49;77.21;99468.47;4946532;28;20134;-89
2023/05/10 07:35:43;;;;;;;6.32;5.18;;;;;;;17.50;76.97;99472.00;4949461;28;20054;-89
2023/05/10 07:38:11;;;;;;;11.00;5.32;;;;;;;17.51;77.02;99465.63;4949036;28;20143;-88
2023/05/10 07:40:39;;;;;;;10.52;5.30;;;;;;;17.51;76.86;99482.56;4947283;28;20422;-89
2023/05/10 07:43:06;;;;;;;23.10;6.25;;;;;;;17.50;77.00;99475.53;4948434;28;20050;-89
2023/05/10 07:45:33;;;;;;;10.10;5.53;;;;;;;17.50;77.00;99477.34;4939947;28;20474;-90
2023/05/10 07:48:00;;;;;;;9.32;5.20;;;;;;;17.51;77.45;99479.88;4919869;28;20062;-90
2023/05/10 07:50:27;;;;;;;9.25;5.68;;;;;;;17.50;77.77;99486.28;4916430;28;20039;-88
2023/05/10 07:52:54;;;;;;;10.93;6.28;;;;;;;17.51;77.95;99479.88;4933527;28;20073;-89
2023/05/10 07:55:21;;;;;;;9.13;5.80;;;;;;;17.55;77.55;99483.00;4930000;28;20225;-90
2023/05/10 07:57:47;;;;;;;8.05;5.43;;;;;;;17.55;77.73;99481.16;4920052;28;20070;-89
2023/05/10 08:00:18;;;;;;;9.00;5.28;;;;;;;17.57;77.76;99487.16;4950334;28;20038;-90
2023/05/10 08:02:44;;;;;;;10.15;4.95;;;;;;;17.57;77.57;99492.53;4930095;28;20043;-91
2023/05/10 08:05:11;;;;;;;7.50;5.47;;;;;;;17.51;76.98;99477.19;4949283;28;20134;-90
2023/05/10 08:07:38;;;;;;;7.55;5.97;;;;;;;17.50;77.68;99483.59;4950112;28;20126;-87
2023/05/10 08:10:06;;;;;;;10.98;5.50;;;;;;;17.55;78.03;99480.31;4944363;28;20406;-90
2023/05/10 08:12:33;;;;;;;7.30;5.20;;;;;;;17.59;78.20;99478.91;4937524;28;20620;-90
2023/05/10 08:14:59;;;;;;;9.18;6.43;;;;;;;17.68;77.94;99485.00;4971719;28;20098;-84
2023/05/10 08:17:26;;;;;;;9.02;5.18;;;;;;;17.67;77.82;99478.78;4949809;28;20059;-90
2023/05/10 08:19:53;;;;;;;8.63;4.63;;;;;;;17.71;77.16;99496.19;4970731;28;20050;-89
2023/05/10 08:22:20;;;;;;;7.35;4.68;;;;;;;17.75;77.03;99497.47;4933281;28;20179;-90
2023/05/10 08:24:46;;;;;;;5.45;3.97;;;;;;;17.77;76.95;99491.91;4960034;28;20047;-89
2023/05/10 08:27:13;;;;;;;9.20;4.63;;;;;;;17.77;76.15;99499.97;4934406;28;20114;-91
2023/05/10 08:29:40;;;;;;;6.35;4.57;;;;;;;17.79;76.31;99500.63;4917860;28;20047;-90
2023/05/10 08:32:15;;;;;;;4.35;3.88;;;;;;;17.78;75.77;99496.25;4928375;28;20602;-90
2023/05/10 08:34:42;;;;;;;6.70;3.78;;;;;;;17.75;76.09;99491.28;4953198;28;20135;-90
2023/05/10 08:37:12;;;;;;;9.60;4.38;;;;;;;17.77;76.04;99498.13;4931350;28;20058;-90
2023/05/10 08:39:39;;;;;;;7.45;4.32;;;;;;;17.72;75.61;99494.34;4931551;28;20047;-90
2023/05/10 08:42:08;;;;;;;11.45;3.88;;;;;;;17.73;75.22;99506.72;4932251;28;20055;-91
2023/05/10 08:44:36;;;;;;;6.38;3.78;;;;;;;17.72;75.15;99503.22;4963917;28;20067;-89
2023/05/10 08:47:05;;;;;;;5.90;4.00;;;;;;;17.75;74.99;99516.25;4921608;28;20083;-89
2023/05/10 08:49:33;;;;;;;7.65;3.80;;;;;;;17.78;75.28;99515.91;4929880;28;20043;-90
2023/05/10 08:52:04;;;;;;;8.75;3.63;;;;;;;17.76;74.83;99523.31;4944811;28;20043;-90
2023/05/10 08:54:34;;;;;;;7.85;3.53;;;;;;;17.68;74.65;99518.06;4932828;28;20047;-90
2023/05/10 08:57:01;;;;;;;7.00;3.20;;;;;;;17.71;74.42;99528.44;4948370;28;20388;-90
2023/05/10 08:59:28;;;;;;;8.43;3.80;;;;;;;17.68;74.36;99523.44;4926111;28;20047;-89
2023/05/10 09:01:57;;;;;;;6.43;3.17;;;;;;;17.68;74.36;99530.63;4959831;28;20495;-91
2023/05/10 09:04:24;;;;;;;5.20;3.15;;;;;;;17.65;73.80;99534.53;4949982;28;20075;-90
2023/05/10 09:06:51;;;;;;;14.52;3.53;;;;;;;17.62;73.75;99537.59;4947747;28;20053;-89
2023/05/10 09:09:19;;;;;;;5.35;3.72;;;;;;;17.61;73.61;99535.13;4947146;28;20047;-89
2023/05/10 09:11:46;;;;;;;7.50;3.08;;;;;;;17.62;73.57;99536.78;4952427;28;20058;-89
2023/05/10 09:14:12;;;;;;;5.45;3.13;;;;;;;17.56;73.78;99531.13;4945630;28;20403;-90
2023/05/10 09:16:39;;;;;;;7.25;3.50;;;;;;;17.57;73.71;99540.84;4950495;28;20544;-89
2023/05/10 09:19:08;;;;;;;3.88;2.80;;;;;;;17.61;73.30;99535.13;4931849;28;20051;-90
2023/05/10 09:21:37;;;;;;;7.20;2.80;;;;;;;17.62;73.46;99540.28;4950663;28;20047;-89
2023/05/10 09:24:06;;;;;;;4.50;2.83;;;;;;;17.63;73.94;99539.28;4932002;28;20845;-89
2023/05/10 09:26:35;;;;;;;4.72;3.38;;;;;;;17.67;74.02;99545.94;4931101;28;20059;-84
2023/05/10 09:29:02;;;;;;;5.15;3.05;;;;;;;17.68;73.52;99544.06;4946867;28;20051;-90
2023/05/10 09:31:54;;;;;;;5.43;2.80;;;;;;;17.63;72.13;99549.16;4948406;28;21034;-90
2023/05/10 09:34:29;;;;;;;4.90;2.90;;;;;;;17.68;72.38;99544.06;4913721;28;20047;-90
2023/05/10 09:37:01;;;;;;;4.93;3.13;;;;;;;17.75;72.70;99553.03;4931934;28;20207;-87
2023/05/10 09:39:34;;;;;;;4.03;2.92;;;;;;;17.76;72.96;99541.28;4955437;28;20047;-90
2023/05/10 09:42:06;;;;;;;12.07;3.17;;;;;;;17.78;72.40;99537.41;4951043;28;20055;-89
2023/05/10 09:44:33;;;;;;;4.30;3.05;;;;;;;17.79;72.70;99543.59;4954891;28;20093;-89
2023/05/10 09:47:01;;;;;;;4.93;2.60;;;;;;;17.82;72.70;99537.03;4970388;28;20047;-90
2023/05/10 09:49:28;;;;;;;5.03;2.45;;;;;;;17.86;72.43;99531.09;4934002;28;20046;-90
2023/05/10 09:52:06;;;;;;;4.43;2.95;;;;;;;17.85;70.98;99532.09;4951924;28;20121;-89
2023/05/10 09:54:34;;;;;;;5.05;2.80;;;;;;;17.93;71.78;99548.09;4934668;28;20380;-90
2023/05/10 09:57:01;;;;;;;3.60;2.53;;;;;;;17.96;71.93;99547.75;4949998;28;20043;-89
2023/05/10 09:59:28;;;;;;;2.33;2.13;;;;;;;17.94;71.78;99540.91;4951464;28;20047;-89
2023/05/10 10:01:56;;;;;;;5.05;2.65;;;;;;;17.90;71.61;99551.16;4953138;28;20059;-89
2023/05/10 10:04:23;;;;;;;4.38;2.28;;;;;;;17.88;71.85;99544.31;4926972;28;20051;-90
2023/05/10 10:07:01;;;;;;;4.60;2.53;;;;;;;17.78;71.66;99549.97;4931963;28;20057;-85
2023/05/10 10:09:28;;;;;;;3.58;2.13;;;;;;;17.83;72.07;99541.38;4951534;28;20105;-89
2023/05/10 10:11:55;;;;;;;3.85;2.47;;;;;;;17.79;71.47;99544.44;4917425;28;20102;-90
2023/05/10 10:14:26;;;;;;;5.28;2.45;;;;;;;17.80;71.11;99534.53;4947562;28;20054;-89
2023/05/10 10:16:53;;;;;;;3.75;2.38;;;;;;;17.83;71.41;99546.75;4932253;28;20131;-89
2023/05/10 10:19:35;;;;;;;2.72;2.40;;;;;;;17.83;71.40;99546.75;4940717;28;20097;-90
2023/05/10 10:22:02;;;;;;;8.00;2.40;;;;;;;17.86;71.29;99543.69;4971317;28;20054;-90
2023/05/10 10:24:29;;;;;;;8.63;2.90;;;;;;;17.91;71.02;99541.25;4948130;28;20043;-91
2023/05/10 10:27:04;;;;;;;5.75;2.47;;;;;;;17.92;71.13;99543.75;4919936;28;20399;-91
2023/05/10 10:29:50;;;;;;;3.13;2.53;;;;;;;17.90;70.64;99540.44;4949853;28;20052;-90
2023/05/10 10:32:25;;;;;;;4.47;2.50;;;;;;;17.94;71.02;99539.03;4942200;28;20059;-90
2023/05/10 10:34:53;;;;;;;3.40;2.25;;;;;;;17.98;70.78;99542.97;4950943;28;20071;-91
2023/05/10 10:37:21;;;;;;;3.83;2.58;;;;;;;17.96;69.44;99546.88;4907761;28;20380;-90
2023/05/10 10:39:50;;;;;;;4.45;2.30;;;;;;;17.94;69.09;99544.41;4946960;28;20044;-90
2023/05/10 10:42:47;;;;;;;2.88;2.42;;;;;;;17.86;68.15;99547.22;4930670;28;20052;-89
2023/05/10 10:45:13;;;;;;;4.05;2.40;;;;;;;17.96;69.05;99545.06;4931785;28;20047;-89
2023/05/10 10:47:43;;;;;;;6.47;2.65;;;;;;;18.02;69.15;99539.94;4961215;28;20051;-90
2023/05/10 10:50:12;;;;;;;5.28;2.42;;;;;;;18.07;68.51;99538.34;4935481;28;20052;-89
2023/05/10 10:52:40;;;;;;;6.65;2.22;;;;;;;18.14;68.95;99516.88;4950719;28;20487;-89
2023/05/10 10:55:18;;;;;;;4.30;2.30;;;;;;;18.18;68.88;99523.56;4949159;28;20050;-90
2023/05/10 10:57:51;;;;;;;5.70;2.30;;;;;;;18.27;68.83;99519.72;4950188;28;20485;-90
2023/05/10 11:00:32;;;;;;;8.70;2.90;;;;;;;18.29;67.62;99516.81;4945715;28;20400;-90
2023/05/10 11:03:14;;;;;;;4.50;2.50;;;;;;;18.34;67.41;99531.38;4923472;28;20836;-91
2023/05/10 11:05:45;;;;;;;3.47;2.20;;;;;;;18.30;65.34;99521.19;4949847;28;20055;-86
2023/05/10 11:08:33;;;;;;;2.05;1.85;;;;;;;18.30;65.76;99521.19;4947463;28;20051;-89
2023/05/10 11:11:08;;;;;;;3.97;2.60;;;;;;;18.41;66.45;99517.97;4947591;28;20047;-89
2023/05/10 11:13:39;;;;;;;5.88;2.53;;;;;;;18.44;66.28;99518.41;4949248;28;20758;-89
2023/05/10 11:16:26;;;;;;;5.32;2.40;;;;;;;18.44;66.03;99533.69;4948344;28;20034;-89
2023/05/10 11:19:07;;;;;;;3.55;2.00;;;;;;;18.35;64.63;99540.25;4949532;28;21616;-88
2023/05/10 11:21:48;;;;;;;5.82;2.20;;;;;;;18.32;64.98;99546.00;4962925;28;20491;-89
2023/05/10 11:24:19;;;;;;;2.95;2.08;;;;;;;18.35;65.54;99548.31;4949546;28;20050;-86
2023/05/10 11:26:49;;;;;;;3.10;2.20;;;;;;;18.36;66.11;99547.28;4964161;28;20073;-89
2023/05/10 11:29:16;;;;;;;3.33;2.30;;;;;;;18.34;66.54;99542.13;4947399;28;20096;-88
2023/05/10 11:31:45;;;;;;;3.00;1.90;;;;;;;18.38;66.70;99548.75;4937703;28;20047;-89
2023/05/10 11:34:14;;;;;;;2.50;1.90;;;;;;;18.40;66.67;99545.88;4932586;28;20039;-90
2023/05/10 11:36:41;;;;;;;5.03;2.45;;;;;;;18.38;66.46;99547.94;4929185;28;20043;-89
2023/05/10 11:39:08;;;;;;;6.75;2.65;;;;;;;18.34;65.98;99560.94;4948494;28;20406;-90
2023/05/10 11:41:35;;;;;;;4.47;2.13;;;;;;;18.37;66.47;99563.22;4952127;28;20078;-88